<?xml version="1.0" encoding="UTF-8" standalone="no" ?>
<gpx xmlns="http://www.topografix.com/GPX/1/1" xmlns:xsi="http://www.w3.org/2001/XMLSchema-instance" xsi:schemaLocation="http://www.topografix.com/GPX/1/1 http://www.topografix.com/GPX/1/1/gpx.xsd" version="1.1" creator="VisuGPX - https://www.visugpx.com">
  <metadata>
    <name>boucle minime cadet</name>
    <desc><![CDATA[boucle minime cadet TRJV]]></desc>
  </metadata>
  <trk>
    <name><![CDATA[2013-06-16T12:03:30Z]]></name>
    <trkseg>
      <trkpt lat="45.65175" lon="5.98678">
        <ele>1333.609</ele>
        <time>2013-06-16T12:03:30Z</time>
      </trkpt>
      <trkpt lat="45.6518" lon="5.98681">
        <ele>1333.899</ele>
        <time>2013-06-16T12:03:34Z</time>
      </trkpt>
      <trkpt lat="45.65193" lon="5.98689">
        <ele>1334.899</ele>
        <time>2013-06-16T12:03:38Z</time>
      </trkpt>
      <trkpt lat="45.65204" lon="5.98696">
        <ele>1336.421</ele>
        <time>2013-06-16T12:03:41Z</time>
      </trkpt>
      <trkpt lat="45.65229" lon="5.98726">
        <ele>1339.68</ele>
        <time>2013-06-16T12:03:49Z</time>
      </trkpt>
      <trkpt lat="45.65232" lon="5.9873">
        <ele>1339.84</ele>
        <time>2013-06-16T12:03:50Z</time>
      </trkpt>
      <trkpt lat="45.65248" lon="5.98741">
        <ele>1340.209</ele>
        <time>2013-06-16T12:03:54Z</time>
      </trkpt>
      <trkpt lat="45.65261" lon="5.98746">
        <ele>1340.289</ele>
        <time>2013-06-16T12:03:57Z</time>
      </trkpt>
      <trkpt lat="45.6527" lon="5.98751">
        <ele>1340.459</ele>
        <time>2013-06-16T12:03:59Z</time>
      </trkpt>
      <trkpt lat="45.65296" lon="5.9876">
        <ele>1341.689</ele>
        <time>2013-06-16T12:04:06Z</time>
      </trkpt>
      <trkpt lat="45.65312" lon="5.98761">
        <ele>1343.279</ele>
        <time>2013-06-16T12:04:11Z</time>
      </trkpt>
      <trkpt lat="45.65334" lon="5.98776">
        <ele>1345.219</ele>
        <time>2013-06-16T12:04:17Z</time>
      </trkpt>
      <trkpt lat="45.65343" lon="5.98797">
        <ele>1344.918</ele>
        <time>2013-06-16T12:04:22Z</time>
      </trkpt>
      <trkpt lat="45.65347" lon="5.9881">
        <ele>1344.578</ele>
        <time>2013-06-16T12:04:25Z</time>
      </trkpt>
      <trkpt lat="45.65337" lon="5.98822">
        <ele>1343.467</ele>
        <time>2013-06-16T12:04:30Z</time>
      </trkpt>
      <trkpt lat="45.65305" lon="5.98825">
        <ele>1340.887</ele>
        <time>2013-06-16T12:04:35Z</time>
      </trkpt>
      <trkpt lat="45.65279" lon="5.98821">
        <ele>1340.878</ele>
        <time>2013-06-16T12:04:39Z</time>
      </trkpt>
      <trkpt lat="45.65262" lon="5.98828">
        <ele>1339.647</ele>
        <time>2013-06-16T12:04:42Z</time>
      </trkpt>
      <trkpt lat="45.65241" lon="5.98849">
        <ele>1337.146</ele>
        <time>2013-06-16T12:04:46Z</time>
      </trkpt>
      <trkpt lat="45.65225" lon="5.98877">
        <ele>1335.698</ele>
        <time>2013-06-16T12:04:50Z</time>
      </trkpt>
      <trkpt lat="45.65218" lon="5.98915">
        <ele>1336.3</ele>
        <time>2013-06-16T12:04:55Z</time>
      </trkpt>
      <trkpt lat="45.65222" lon="5.98941">
        <ele>1337.03</ele>
        <time>2013-06-16T12:05:00Z</time>
      </trkpt>
      <trkpt lat="45.65248" lon="5.98962">
        <ele>1338.54</ele>
        <time>2013-06-16T12:05:08Z</time>
      </trkpt>
      <trkpt lat="45.65254" lon="5.98969">
        <ele>1338.53</ele>
        <time>2013-06-16T12:05:10Z</time>
      </trkpt>
      <trkpt lat="45.65263" lon="5.9899">
        <ele>1337.678</ele>
        <time>2013-06-16T12:05:14Z</time>
      </trkpt>
      <trkpt lat="45.65279" lon="5.99043">
        <ele>1336.029</ele>
        <time>2013-06-16T12:05:21Z</time>
      </trkpt>
      <trkpt lat="45.65298" lon="5.99081">
        <ele>1336.19</ele>
        <time>2013-06-16T12:05:27Z</time>
      </trkpt>
      <trkpt lat="45.65311" lon="5.99101">
        <ele>1336.73</ele>
        <time>2013-06-16T12:05:32Z</time>
      </trkpt>
      <trkpt lat="45.65324" lon="5.9912">
        <ele>1337.57</ele>
        <time>2013-06-16T12:05:38Z</time>
      </trkpt>
      <trkpt lat="45.65333" lon="5.99141">
        <ele>1339.24</ele>
        <time>2013-06-16T12:05:45Z</time>
      </trkpt>
      <trkpt lat="45.65343" lon="5.99149">
        <ele>1340.53</ele>
        <time>2013-06-16T12:05:50Z</time>
      </trkpt>
      <trkpt lat="45.65355" lon="5.99158">
        <ele>1341.75</ele>
        <time>2013-06-16T12:05:56Z</time>
      </trkpt>
      <trkpt lat="45.65364" lon="5.99172">
        <ele>1343.76</ele>
        <time>2013-06-16T12:06:02Z</time>
      </trkpt>
      <trkpt lat="45.65365" lon="5.99178">
        <ele>1344.62</ele>
        <time>2013-06-16T12:06:04Z</time>
      </trkpt>
      <trkpt lat="45.65359" lon="5.99201">
        <ele>1345.739</ele>
        <time>2013-06-16T12:06:12Z</time>
      </trkpt>
      <trkpt lat="45.65357" lon="5.99216">
        <ele>1346.039</ele>
        <time>2013-06-16T12:06:17Z</time>
      </trkpt>
      <trkpt lat="45.65357" lon="5.99237">
        <ele>1346.919</ele>
        <time>2013-06-16T12:06:23Z</time>
      </trkpt>
      <trkpt lat="45.6536" lon="5.99257">
        <ele>1348.86</ele>
        <time>2013-06-16T12:06:29Z</time>
      </trkpt>
      <trkpt lat="45.65362" lon="5.99263">
        <ele>1349.891</ele>
        <time>2013-06-16T12:06:31Z</time>
      </trkpt>
      <trkpt lat="45.65363" lon="5.99279">
        <ele>1352.22</ele>
        <time>2013-06-16T12:06:38Z</time>
      </trkpt>
      <trkpt lat="45.65363" lon="5.99282">
        <ele>1352.1</ele>
        <time>2013-06-16T12:06:39Z</time>
      </trkpt>
      <trkpt lat="45.65366" lon="5.99298">
        <ele>1351.308</ele>
        <time>2013-06-16T12:06:44Z</time>
      </trkpt>
      <trkpt lat="45.65367" lon="5.99303">
        <ele>1351.469</ele>
        <time>2013-06-16T12:06:45Z</time>
      </trkpt>
      <trkpt lat="45.65373" lon="5.99334">
        <ele>1352.8</ele>
        <time>2013-06-16T12:06:53Z</time>
      </trkpt>
      <trkpt lat="45.65376" lon="5.99348">
        <ele>1352.81</ele>
        <time>2013-06-16T12:06:57Z</time>
      </trkpt>
      <trkpt lat="45.65378" lon="5.99368">
        <ele>1353.659</ele>
        <time>2013-06-16T12:07:03Z</time>
      </trkpt>
      <trkpt lat="45.65374" lon="5.99387">
        <ele>1355.05</ele>
        <time>2013-06-16T12:07:09Z</time>
      </trkpt>
      <trkpt lat="45.65364" lon="5.99405">
        <ele>1354.89</ele>
        <time>2013-06-16T12:07:15Z</time>
      </trkpt>
      <trkpt lat="45.65361" lon="5.99424">
        <ele>1358.641</ele>
        <time>2013-06-16T12:07:21Z</time>
      </trkpt>
      <trkpt lat="45.6536" lon="5.99446">
        <ele>1363.142</ele>
        <time>2013-06-16T12:07:29Z</time>
      </trkpt>
      <trkpt lat="45.65364" lon="5.9946">
        <ele>1362.95</ele>
        <time>2013-06-16T12:07:34Z</time>
      </trkpt>
      <trkpt lat="45.65374" lon="5.99478">
        <ele>1362.019</ele>
        <time>2013-06-16T12:07:41Z</time>
      </trkpt>
      <trkpt lat="45.65382" lon="5.99494">
        <ele>1362.219</ele>
        <time>2013-06-16T12:07:47Z</time>
      </trkpt>
      <trkpt lat="45.65392" lon="5.99516">
        <ele>1362.019</ele>
        <time>2013-06-16T12:07:53Z</time>
      </trkpt>
      <trkpt lat="45.65405" lon="5.99538">
        <ele>1362.399</ele>
        <time>2013-06-16T12:07:59Z</time>
      </trkpt>
      <trkpt lat="45.6541" lon="5.99547">
        <ele>1362.318</ele>
        <time>2013-06-16T12:08:01Z</time>
      </trkpt>
      <trkpt lat="45.65431" lon="5.99581">
        <ele>1359.859</ele>
        <time>2013-06-16T12:08:08Z</time>
      </trkpt>
      <trkpt lat="45.65458" lon="5.99611">
        <ele>1357.818</ele>
        <time>2013-06-16T12:08:14Z</time>
      </trkpt>
      <trkpt lat="45.65467" lon="5.99622">
        <ele>1357.289</ele>
        <time>2013-06-16T12:08:16Z</time>
      </trkpt>
      <trkpt lat="45.65498" lon="5.99663">
        <ele>1358.65</ele>
        <time>2013-06-16T12:08:23Z</time>
      </trkpt>
      <trkpt lat="45.65519" lon="5.99691">
        <ele>1358.45</ele>
        <time>2013-06-16T12:08:28Z</time>
      </trkpt>
      <trkpt lat="45.65542" lon="5.99732">
        <ele>1358.12</ele>
        <time>2013-06-16T12:08:35Z</time>
      </trkpt>
      <trkpt lat="45.65553" lon="5.99765">
        <ele>1356.91</ele>
        <time>2013-06-16T12:08:40Z</time>
      </trkpt>
      <trkpt lat="45.65555" lon="5.99771">
        <ele>1356.92</ele>
        <time>2013-06-16T12:08:41Z</time>
      </trkpt>
      <trkpt lat="45.65567" lon="5.99791">
        <ele>1356.96</ele>
        <time>2013-06-16T12:08:46Z</time>
      </trkpt>
      <trkpt lat="45.65575" lon="5.99804">
        <ele>1356.04</ele>
        <time>2013-06-16T12:08:49Z</time>
      </trkpt>
      <trkpt lat="45.65592" lon="5.99835">
        <ele>1356.041</ele>
        <time>2013-06-16T12:08:55Z</time>
      </trkpt>
      <trkpt lat="45.65603" lon="5.9985">
        <ele>1357.082</ele>
        <time>2013-06-16T12:08:59Z</time>
      </trkpt>
      <trkpt lat="45.65616" lon="5.99868">
        <ele>1357.781</ele>
        <time>2013-06-16T12:09:05Z</time>
      </trkpt>
      <trkpt lat="45.65627" lon="5.99882">
        <ele>1356.399</ele>
        <time>2013-06-16T12:09:10Z</time>
      </trkpt>
      <trkpt lat="45.65634" lon="5.99888">
        <ele>1355.908</ele>
        <time>2013-06-16T12:09:12Z</time>
      </trkpt>
      <trkpt lat="45.65651" lon="5.9988">
        <ele>1356.079</ele>
        <time>2013-06-16T12:09:16Z</time>
      </trkpt>
      <trkpt lat="45.65668" lon="5.99865">
        <ele>1357.322</ele>
        <time>2013-06-16T12:09:21Z</time>
      </trkpt>
      <trkpt lat="45.65677" lon="5.9986">
        <ele>1359.343</ele>
        <time>2013-06-16T12:09:24Z</time>
      </trkpt>
      <trkpt lat="45.65692" lon="5.99845">
        <ele>1363.203</ele>
        <time>2013-06-16T12:09:30Z</time>
      </trkpt>
      <trkpt lat="45.65708" lon="5.99849">
        <ele>1364.112</ele>
        <time>2013-06-16T12:09:35Z</time>
      </trkpt>
      <trkpt lat="45.65719" lon="5.99853">
        <ele>1364.612</ele>
        <time>2013-06-16T12:09:38Z</time>
      </trkpt>
      <trkpt lat="45.65734" lon="5.99858">
        <ele>1366.542</ele>
        <time>2013-06-16T12:09:42Z</time>
      </trkpt>
      <trkpt lat="45.65755" lon="5.9984">
        <ele>1367.192</ele>
        <time>2013-06-16T12:09:47Z</time>
      </trkpt>
      <trkpt lat="45.65771" lon="5.99822">
        <ele>1368.833</ele>
        <time>2013-06-16T12:09:52Z</time>
      </trkpt>
      <trkpt lat="45.65788" lon="5.99795">
        <ele>1370.542</ele>
        <time>2013-06-16T12:09:58Z</time>
      </trkpt>
      <trkpt lat="45.65802" lon="5.9978">
        <ele>1371.342</ele>
        <time>2013-06-16T12:10:02Z</time>
      </trkpt>
      <trkpt lat="45.65812" lon="5.9977">
        <ele>1370.872</ele>
        <time>2013-06-16T12:10:05Z</time>
      </trkpt>
      <trkpt lat="45.65827" lon="5.99761">
        <ele>1369.711</ele>
        <time>2013-06-16T12:10:08Z</time>
      </trkpt>
      <trkpt lat="45.65843" lon="5.99737">
        <ele>1369.952</ele>
        <time>2013-06-16T12:10:13Z</time>
      </trkpt>
      <trkpt lat="45.65845" lon="5.99708">
        <ele>1367.119</ele>
        <time>2013-06-16T12:10:18Z</time>
      </trkpt>
      <trkpt lat="45.65848" lon="5.99685">
        <ele>1366.271</ele>
        <time>2013-06-16T12:10:21Z</time>
      </trkpt>
      <trkpt lat="45.65849" lon="5.99663">
        <ele>1365.321</ele>
        <time>2013-06-16T12:10:24Z</time>
      </trkpt>
      <trkpt lat="45.65848" lon="5.9964">
        <ele>1366.492</ele>
        <time>2013-06-16T12:10:28Z</time>
      </trkpt>
      <trkpt lat="45.65845" lon="5.99629">
        <ele>1367.602</ele>
        <time>2013-06-16T12:10:30Z</time>
      </trkpt>
      <trkpt lat="45.65835" lon="5.99597">
        <ele>1369.703</ele>
        <time>2013-06-16T12:10:36Z</time>
      </trkpt>
      <trkpt lat="45.65841" lon="5.99574">
        <ele>1368.581</ele>
        <time>2013-06-16T12:10:40Z</time>
      </trkpt>
      <trkpt lat="45.65846" lon="5.99562">
        <ele>1368.342</ele>
        <time>2013-06-16T12:10:42Z</time>
      </trkpt>
      <trkpt lat="45.65855" lon="5.99518">
        <ele>1366.972</ele>
        <time>2013-06-16T12:10:49Z</time>
      </trkpt>
      <trkpt lat="45.65857" lon="5.99496">
        <ele>1367.732</ele>
        <time>2013-06-16T12:10:53Z</time>
      </trkpt>
      <trkpt lat="45.65856" lon="5.9949">
        <ele>1367.782</ele>
        <time>2013-06-16T12:10:54Z</time>
      </trkpt>
      <trkpt lat="45.65852" lon="5.99473">
        <ele>1367.952</ele>
        <time>2013-06-16T12:10:57Z</time>
      </trkpt>
      <trkpt lat="45.65843" lon="5.99433">
        <ele>1369.213</ele>
        <time>2013-06-16T12:11:03Z</time>
      </trkpt>
      <trkpt lat="45.65835" lon="5.99396">
        <ele>1371.133</ele>
        <time>2013-06-16T12:11:09Z</time>
      </trkpt>
      <trkpt lat="45.6583" lon="5.99359">
        <ele>1372.043</ele>
        <time>2013-06-16T12:11:15Z</time>
      </trkpt>
      <trkpt lat="45.65833" lon="5.99339">
        <ele>1373.183</ele>
        <time>2013-06-16T12:11:19Z</time>
      </trkpt>
      <trkpt lat="45.65835" lon="5.99327">
        <ele>1373.823</ele>
        <time>2013-06-16T12:11:21Z</time>
      </trkpt>
      <trkpt lat="45.65848" lon="5.99291">
        <ele>1375.202</ele>
        <time>2013-06-16T12:11:27Z</time>
      </trkpt>
      <trkpt lat="45.6586" lon="5.99263">
        <ele>1376.342</ele>
        <time>2013-06-16T12:11:32Z</time>
      </trkpt>
      <trkpt lat="45.65867" lon="5.99243">
        <ele>1376.642</ele>
        <time>2013-06-16T12:11:35Z</time>
      </trkpt>
      <trkpt lat="45.65875" lon="5.99209">
        <ele>1376.242</ele>
        <time>2013-06-16T12:11:40Z</time>
      </trkpt>
      <trkpt lat="45.65869" lon="5.99178">
        <ele>1375.982</ele>
        <time>2013-06-16T12:11:45Z</time>
      </trkpt>
      <trkpt lat="45.65857" lon="5.99148">
        <ele>1376.512</ele>
        <time>2013-06-16T12:11:51Z</time>
      </trkpt>
      <trkpt lat="45.65845" lon="5.9911">
        <ele>1377.532</ele>
        <time>2013-06-16T12:11:58Z</time>
      </trkpt>
      <trkpt lat="45.65842" lon="5.99103">
        <ele>1378.012</ele>
        <time>2013-06-16T12:11:59Z</time>
      </trkpt>
      <trkpt lat="45.65834" lon="5.99071">
        <ele>1381.633</ele>
        <time>2013-06-16T12:12:03Z</time>
      </trkpt>
      <trkpt lat="45.65825" lon="5.99044">
        <ele>1383.413</ele>
        <time>2013-06-16T12:12:08Z</time>
      </trkpt>
      <trkpt lat="45.65816" lon="5.99018">
        <ele>1381.492</ele>
        <time>2013-06-16T12:12:13Z</time>
      </trkpt>
      <trkpt lat="45.65813" lon="5.98986">
        <ele>1379.041</ele>
        <time>2013-06-16T12:12:18Z</time>
      </trkpt>
      <trkpt lat="45.65806" lon="5.98946">
        <ele>1374.591</ele>
        <time>2013-06-16T12:12:24Z</time>
      </trkpt>
      <trkpt lat="45.65798" lon="5.98911">
        <ele>1377.082</ele>
        <time>2013-06-16T12:12:30Z</time>
      </trkpt>
      <trkpt lat="45.65795" lon="5.98898">
        <ele>1378.872</ele>
        <time>2013-06-16T12:12:32Z</time>
      </trkpt>
      <trkpt lat="45.65785" lon="5.98859">
        <ele>1379.731</ele>
        <time>2013-06-16T12:12:37Z</time>
      </trkpt>
      <trkpt lat="45.65782" lon="5.98803">
        <ele>1377.721</ele>
        <time>2013-06-16T12:12:43Z</time>
      </trkpt>
      <trkpt lat="45.65779" lon="5.98773">
        <ele>1374.551</ele>
        <time>2013-06-16T12:12:48Z</time>
      </trkpt>
      <trkpt lat="45.65772" lon="5.98736">
        <ele>1377.993</ele>
        <time>2013-06-16T12:12:54Z</time>
      </trkpt>
      <trkpt lat="45.65767" lon="5.98678">
        <ele>1376.17</ele>
        <time>2013-06-16T12:13:02Z</time>
      </trkpt>
      <trkpt lat="45.6576" lon="5.98628">
        <ele>1375.741</ele>
        <time>2013-06-16T12:13:08Z</time>
      </trkpt>
      <trkpt lat="45.65765" lon="5.98603">
        <ele>1373.651</ele>
        <time>2013-06-16T12:13:12Z</time>
      </trkpt>
      <trkpt lat="45.65762" lon="5.98571">
        <ele>1373.821</ele>
        <time>2013-06-16T12:13:17Z</time>
      </trkpt>
      <trkpt lat="45.65756" lon="5.98556">
        <ele>1375.653</ele>
        <time>2013-06-16T12:13:20Z</time>
      </trkpt>
      <trkpt lat="45.65743" lon="5.98543">
        <ele>1376.961</ele>
        <time>2013-06-16T12:13:25Z</time>
      </trkpt>
      <trkpt lat="45.65719" lon="5.98546">
        <ele>1377.471</ele>
        <time>2013-06-16T12:13:31Z</time>
      </trkpt>
      <trkpt lat="45.65707" lon="5.98546">
        <ele>1377.451</ele>
        <time>2013-06-16T12:13:34Z</time>
      </trkpt>
      <trkpt lat="45.65691" lon="5.98543">
        <ele>1377.98</ele>
        <time>2013-06-16T12:13:38Z</time>
      </trkpt>
      <trkpt lat="45.6567" lon="5.98525">
        <ele>1378.42</ele>
        <time>2013-06-16T12:13:43Z</time>
      </trkpt>
      <trkpt lat="45.65641" lon="5.98505">
        <ele>1379.25</ele>
        <time>2013-06-16T12:13:49Z</time>
      </trkpt>
      <trkpt lat="45.65637" lon="5.98503">
        <ele>1379.44</ele>
        <time>2013-06-16T12:13:50Z</time>
      </trkpt>
      <trkpt lat="45.65615" lon="5.98504">
        <ele>1380.66</ele>
        <time>2013-06-16T12:13:54Z</time>
      </trkpt>
      <trkpt lat="45.65586" lon="5.98505">
        <ele>1379.029</ele>
        <time>2013-06-16T12:13:59Z</time>
      </trkpt>
      <trkpt lat="45.65558" lon="5.98495">
        <ele>1378.099</ele>
        <time>2013-06-16T12:14:04Z</time>
      </trkpt>
      <trkpt lat="45.65548" lon="5.98489">
        <ele>1377.899</ele>
        <time>2013-06-16T12:14:06Z</time>
      </trkpt>
      <trkpt lat="45.65531" lon="5.98485">
        <ele>1377.979</ele>
        <time>2013-06-16T12:14:10Z</time>
      </trkpt>
      <trkpt lat="45.65514" lon="5.98492">
        <ele>1377.059</ele>
        <time>2013-06-16T12:14:16Z</time>
      </trkpt>
      <trkpt lat="45.65508" lon="5.98511">
        <ele>1374.908</ele>
        <time>2013-06-16T12:14:21Z</time>
      </trkpt>
      <trkpt lat="45.655" lon="5.98527">
        <ele>1374.578</ele>
        <time>2013-06-16T12:14:25Z</time>
      </trkpt>
      <trkpt lat="45.65493" lon="5.9853">
        <ele>1376.419</ele>
        <time>2013-06-16T12:14:28Z</time>
      </trkpt>
      <trkpt lat="45.6548" lon="5.98533">
        <ele>1376.589</ele>
        <time>2013-06-16T12:14:35Z</time>
      </trkpt>
      <trkpt lat="45.65478" lon="5.98532">
        <ele>1377.339</ele>
        <time>2013-06-16T12:14:36Z</time>
      </trkpt>
      <trkpt lat="45.65467" lon="5.98523">
        <ele>1379.399</ele>
        <time>2013-06-16T12:14:42Z</time>
      </trkpt>
      <trkpt lat="45.65463" lon="5.98519">
        <ele>1380.49</ele>
        <time>2013-06-16T12:14:44Z</time>
      </trkpt>
      <trkpt lat="45.65459" lon="5.9852">
        <ele>1381.61</ele>
        <time>2013-06-16T12:14:48Z</time>
      </trkpt>
      <trkpt lat="45.65456" lon="5.98521">
        <ele>1382.019</ele>
        <time>2013-06-16T12:14:53Z</time>
      </trkpt>
      <trkpt lat="45.65453" lon="5.98515">
        <ele>1380.278</ele>
        <time>2013-06-16T12:14:59Z</time>
      </trkpt>
      <trkpt lat="45.65449" lon="5.98508">
        <ele>1380.368</ele>
        <time>2013-06-16T12:15:05Z</time>
      </trkpt>
      <trkpt lat="45.65446" lon="5.98504">
        <ele>1379.658</ele>
        <time>2013-06-16T12:15:09Z</time>
      </trkpt>
      <trkpt lat="45.65432" lon="5.98507">
        <ele>1377.527</ele>
        <time>2013-06-16T12:15:14Z</time>
      </trkpt>
      <trkpt lat="45.65422" lon="5.98515">
        <ele>1375.758</ele>
        <time>2013-06-16T12:15:18Z</time>
      </trkpt>
      <trkpt lat="45.65413" lon="5.98519">
        <ele>1372.995</ele>
        <time>2013-06-16T12:15:22Z</time>
      </trkpt>
      <trkpt lat="45.65403" lon="5.98518">
        <ele>1372.007</ele>
        <time>2013-06-16T12:15:27Z</time>
      </trkpt>
      <trkpt lat="45.65396" lon="5.98518">
        <ele>1371.777</ele>
        <time>2013-06-16T12:15:33Z</time>
      </trkpt>
      <trkpt lat="45.65389" lon="5.98528">
        <ele>1369.667</ele>
        <time>2013-06-16T12:15:38Z</time>
      </trkpt>
      <trkpt lat="45.65377" lon="5.98526">
        <ele>1369.088</ele>
        <time>2013-06-16T12:15:42Z</time>
      </trkpt>
      <trkpt lat="45.65362" lon="5.98519">
        <ele>1367.817</ele>
        <time>2013-06-16T12:15:46Z</time>
      </trkpt>
      <trkpt lat="45.65358" lon="5.98516">
        <ele>1367.938</ele>
        <time>2013-06-16T12:15:47Z</time>
      </trkpt>
      <trkpt lat="45.65348" lon="5.98506">
        <ele>1367.638</ele>
        <time>2013-06-16T12:15:50Z</time>
      </trkpt>
      <trkpt lat="45.65337" lon="5.98511">
        <ele>1366.197</ele>
        <time>2013-06-16T12:15:53Z</time>
      </trkpt>
      <trkpt lat="45.65319" lon="5.98524">
        <ele>1363.196</ele>
        <time>2013-06-16T12:15:58Z</time>
      </trkpt>
      <trkpt lat="45.653" lon="5.98523">
        <ele>1359.485</ele>
        <time>2013-06-16T12:16:02Z</time>
      </trkpt>
      <trkpt lat="45.65278" lon="5.9853">
        <ele>1356.055</ele>
        <time>2013-06-16T12:16:07Z</time>
      </trkpt>
      <trkpt lat="45.65266" lon="5.98519">
        <ele>1358.978</ele>
        <time>2013-06-16T12:16:12Z</time>
      </trkpt>
      <trkpt lat="45.65265" lon="5.98518">
        <ele>1361.249</ele>
        <time>2013-06-16T12:16:17Z</time>
      </trkpt>
      <trkpt lat="45.65268" lon="5.9852">
        <ele>1360.739</ele>
        <time>2013-06-16T12:16:23Z</time>
      </trkpt>
      <trkpt lat="45.65256" lon="5.98519">
        <ele>1363.558</ele>
        <time>2013-06-16T12:16:30Z</time>
      </trkpt>
      <trkpt lat="45.65246" lon="5.98503">
        <ele>1361.728</ele>
        <time>2013-06-16T12:16:34Z</time>
      </trkpt>
      <trkpt lat="45.65246" lon="5.985">
        <ele>1361.829</ele>
        <time>2013-06-16T12:16:35Z</time>
      </trkpt>
      <trkpt lat="45.6525" lon="5.98487">
        <ele>1362.289</ele>
        <time>2013-06-16T12:16:40Z</time>
      </trkpt>
      <trkpt lat="45.65258" lon="5.98468">
        <ele>1365.48</ele>
        <time>2013-06-16T12:16:48Z</time>
      </trkpt>
      <trkpt lat="45.65265" lon="5.9845">
        <ele>1367.62</ele>
        <time>2013-06-16T12:16:54Z</time>
      </trkpt>
      <trkpt lat="45.65267" lon="5.98429">
        <ele>1367.64</ele>
        <time>2013-06-16T12:17:01Z</time>
      </trkpt>
      <trkpt lat="45.65261" lon="5.98409">
        <ele>1369.951</ele>
        <time>2013-06-16T12:17:07Z</time>
      </trkpt>
      <trkpt lat="45.65252" lon="5.98389">
        <ele>1373.981</ele>
        <time>2013-06-16T12:17:12Z</time>
      </trkpt>
      <trkpt lat="45.65248" lon="5.98376">
        <ele>1375.031</ele>
        <time>2013-06-16T12:17:16Z</time>
      </trkpt>
      <trkpt lat="45.65246" lon="5.98357">
        <ele>1371.319</ele>
        <time>2013-06-16T12:17:23Z</time>
      </trkpt>
      <trkpt lat="45.65246" lon="5.98335">
        <ele>1373.49</ele>
        <time>2013-06-16T12:17:30Z</time>
      </trkpt>
      <trkpt lat="45.65244" lon="5.9832">
        <ele>1375.83</ele>
        <time>2013-06-16T12:17:35Z</time>
      </trkpt>
      <trkpt lat="45.65239" lon="5.98294">
        <ele>1375.159</ele>
        <time>2013-06-16T12:17:43Z</time>
      </trkpt>
      <trkpt lat="45.65231" lon="5.98281">
        <ele>1377.249</ele>
        <time>2013-06-16T12:17:50Z</time>
      </trkpt>
      <trkpt lat="45.65229" lon="5.98281">
        <ele>1378.16</ele>
        <time>2013-06-16T12:17:51Z</time>
      </trkpt>
      <trkpt lat="45.65224" lon="5.9828">
        <ele>1379.699</ele>
        <time>2013-06-16T12:17:57Z</time>
      </trkpt>
      <trkpt lat="45.65206" lon="5.98277">
        <ele>1380.019</ele>
        <time>2013-06-16T12:18:04Z</time>
      </trkpt>
      <trkpt lat="45.65192" lon="5.98268">
        <ele>1381.4</ele>
        <time>2013-06-16T12:18:09Z</time>
      </trkpt>
      <trkpt lat="45.65188" lon="5.9826">
        <ele>1379.348</ele>
        <time>2013-06-16T12:18:13Z</time>
      </trkpt>
      <trkpt lat="45.65185" lon="5.98238">
        <ele>1379.7</ele>
        <time>2013-06-16T12:18:19Z</time>
      </trkpt>
      <trkpt lat="45.65181" lon="5.98218">
        <ele>1385.263</ele>
        <time>2013-06-16T12:18:24Z</time>
      </trkpt>
      <trkpt lat="45.65181" lon="5.98198">
        <ele>1390.733</ele>
        <time>2013-06-16T12:18:30Z</time>
      </trkpt>
      <trkpt lat="45.65183" lon="5.98185">
        <ele>1388.7</ele>
        <time>2013-06-16T12:18:34Z</time>
      </trkpt>
      <trkpt lat="45.65188" lon="5.98161">
        <ele>1387.43</ele>
        <time>2013-06-16T12:18:40Z</time>
      </trkpt>
      <trkpt lat="45.65191" lon="5.98137">
        <ele>1387.479</ele>
        <time>2013-06-16T12:18:46Z</time>
      </trkpt>
      <trkpt lat="45.65176" lon="5.98125">
        <ele>1384.167</ele>
        <time>2013-06-16T12:18:51Z</time>
      </trkpt>
      <trkpt lat="45.65164" lon="5.98111">
        <ele>1381.847</ele>
        <time>2013-06-16T12:18:55Z</time>
      </trkpt>
      <trkpt lat="45.65161" lon="5.98116">
        <ele>1380.307</ele>
        <time>2013-06-16T12:18:59Z</time>
      </trkpt>
      <trkpt lat="45.65156" lon="5.98127">
        <ele>1379.306</ele>
        <time>2013-06-16T12:19:02Z</time>
      </trkpt>
      <trkpt lat="45.6514" lon="5.98136">
        <ele>1375.665</ele>
        <time>2013-06-16T12:19:07Z</time>
      </trkpt>
      <trkpt lat="45.65135" lon="5.98143">
        <ele>1374.526</ele>
        <time>2013-06-16T12:19:11Z</time>
      </trkpt>
      <trkpt lat="45.65131" lon="5.98149">
        <ele>1373.755</ele>
        <time>2013-06-16T12:19:13Z</time>
      </trkpt>
      <trkpt lat="45.65115" lon="5.9816">
        <ele>1375.926</ele>
        <time>2013-06-16T12:19:17Z</time>
      </trkpt>
      <trkpt lat="45.65099" lon="5.98168">
        <ele>1376.697</ele>
        <time>2013-06-16T12:19:22Z</time>
      </trkpt>
      <trkpt lat="45.65084" lon="5.98165">
        <ele>1380.389</ele>
        <time>2013-06-16T12:19:27Z</time>
      </trkpt>
      <trkpt lat="45.65072" lon="5.98161">
        <ele>1383.33</ele>
        <time>2013-06-16T12:19:30Z</time>
      </trkpt>
      <trkpt lat="45.65045" lon="5.98161">
        <ele>1382.708</ele>
        <time>2013-06-16T12:19:36Z</time>
      </trkpt>
      <trkpt lat="45.65029" lon="5.98162">
        <ele>1383.788</ele>
        <time>2013-06-16T12:19:40Z</time>
      </trkpt>
      <trkpt lat="45.65012" lon="5.98164">
        <ele>1384.188</ele>
        <time>2013-06-16T12:19:45Z</time>
      </trkpt>
      <trkpt lat="45.64995" lon="5.98176">
        <ele>1378.905</ele>
        <time>2013-06-16T12:19:49Z</time>
      </trkpt>
      <trkpt lat="45.64989" lon="5.98184">
        <ele>1377.205</ele>
        <time>2013-06-16T12:19:51Z</time>
      </trkpt>
      <trkpt lat="45.64976" lon="5.98197">
        <ele>1371.453</ele>
        <time>2013-06-16T12:19:55Z</time>
      </trkpt>
      <trkpt lat="45.6496" lon="5.9821">
        <ele>1365.082</ele>
        <time>2013-06-16T12:19:59Z</time>
      </trkpt>
      <trkpt lat="45.6495" lon="5.98217">
        <ele>1362.122</ele>
        <time>2013-06-16T12:20:02Z</time>
      </trkpt>
      <trkpt lat="45.64935" lon="5.98223">
        <ele>1359.713</ele>
        <time>2013-06-16T12:20:06Z</time>
      </trkpt>
      <trkpt lat="45.64927" lon="5.98242">
        <ele>1355.814</ele>
        <time>2013-06-16T12:20:10Z</time>
      </trkpt>
      <trkpt lat="45.64921" lon="5.98263">
        <ele>1349.151</ele>
        <time>2013-06-16T12:20:14Z</time>
      </trkpt>
      <trkpt lat="45.6491" lon="5.9828">
        <ele>1345.591</ele>
        <time>2013-06-16T12:20:17Z</time>
      </trkpt>
      <trkpt lat="45.64899" lon="5.98291">
        <ele>1344.503</ele>
        <time>2013-06-16T12:20:19Z</time>
      </trkpt>
      <trkpt lat="45.64896" lon="5.98314">
        <ele>1342.515</ele>
        <time>2013-06-16T12:20:23Z</time>
      </trkpt>
      <trkpt lat="45.64915" lon="5.9836">
        <ele>1340.756</ele>
        <time>2013-06-16T12:20:29Z</time>
      </trkpt>
      <trkpt lat="45.64933" lon="5.98394">
        <ele>1339.266</ele>
        <time>2013-06-16T12:20:33Z</time>
      </trkpt>
      <trkpt lat="45.64953" lon="5.98438">
        <ele>1337.437</ele>
        <time>2013-06-16T12:20:38Z</time>
      </trkpt>
      <trkpt lat="45.6497" lon="5.98468">
        <ele>1336.647</ele>
        <time>2013-06-16T12:20:42Z</time>
      </trkpt>
      <trkpt lat="45.64991" lon="5.98495">
        <ele>1336.078</ele>
        <time>2013-06-16T12:20:47Z</time>
      </trkpt>
      <trkpt lat="45.65015" lon="5.98512">
        <ele>1335.457</ele>
        <time>2013-06-16T12:20:52Z</time>
      </trkpt>
      <trkpt lat="45.65033" lon="5.98505">
        <ele>1336.489</ele>
        <time>2013-06-16T12:20:55Z</time>
      </trkpt>
      <trkpt lat="45.65048" lon="5.9851">
        <ele>1337.499</ele>
        <time>2013-06-16T12:20:58Z</time>
      </trkpt>
      <trkpt lat="45.65061" lon="5.98527">
        <ele>1336.918</ele>
        <time>2013-06-16T12:21:01Z</time>
      </trkpt>
      <trkpt lat="45.65081" lon="5.98567">
        <ele>1337.72</ele>
        <time>2013-06-16T12:21:07Z</time>
      </trkpt>
      <trkpt lat="45.6509" lon="5.98589">
        <ele>1338.449</ele>
        <time>2013-06-16T12:21:11Z</time>
      </trkpt>
      <trkpt lat="45.651" lon="5.98607">
        <ele>1337.907</ele>
        <time>2013-06-16T12:21:14Z</time>
      </trkpt>
      <trkpt lat="45.65121" lon="5.98624">
        <ele>1336.126</ele>
        <time>2013-06-16T12:21:18Z</time>
      </trkpt>
      <trkpt lat="45.65134" lon="5.98629">
        <ele>1335.677</ele>
        <time>2013-06-16T12:21:20Z</time>
      </trkpt>
      <trkpt lat="45.65147" lon="5.98637">
        <ele>1335.557</ele>
        <time>2013-06-16T12:21:22Z</time>
      </trkpt>
      <trkpt lat="45.65167" lon="5.98668">
        <ele>1333.886</ele>
        <time>2013-06-16T12:21:27Z</time>
      </trkpt>
      <trkpt lat="45.65179" lon="5.98684">
        <ele>1333.538</ele>
        <time>2013-06-16T12:21:31Z</time>
      </trkpt>
    </trkseg>
  </trk>
</gpx>